createdAt,value
2023-04-26T00:02:07.685Z,5.30
2023-04-26T00:04:35.937Z,6.90
2023-04-26T00:07:04.075Z,6.00
2023-04-26T00:09:32.286Z,4.20
2023-04-26T00:12:00.298Z,6.40
2023-04-26T00:14:28.008Z,8.10
2023-04-26T00:16:56.454Z,6.20
2023-04-26T00:19:24.973Z,6.30
2023-04-26T00:21:52.697Z,3.50
2023-04-26T00:24:21.082Z,6.30
2023-04-26T00:26:48.899Z,7.40
2023-04-26T00:29:16.625Z,4.90
2023-04-26T00:31:44.463Z,9.30
2023-04-26T00:34:12.401Z,4.30
2023-04-26T00:36:40.225Z,5.40
2023-04-26T00:39:09.271Z,3.20
2023-04-26T00:41:37.036Z,4.60
2023-04-26T00:44:05.030Z,7.60
2023-04-26T00:46:32.884Z,6.40
2023-04-26T00:49:00.640Z,5.00
2023-04-26T00:51:28.582Z,7.70
2023-04-26T00:53:56.888Z,4.20
2023-04-26T00:56:25.497Z,6.90
2023-04-26T00:58:53.510Z,7.20
2023-04-26T01:01:22.714Z,9.60
2023-04-26T01:03:50.637Z,5.60
2023-04-26T01:06:18.591Z,9.90
2023-04-26T01:08:47.207Z,7.90
2023-04-26T01:11:15.193Z,6.10
2023-04-26T01:13:43.534Z,6.50
2023-04-26T01:16:12.233Z,7.60
2023-04-26T01:18:41.695Z,8.30
2023-04-26T01:21:11.491Z,11.90
2023-04-26T01:23:39.307Z,9.10
2023-04-26T01:26:07.024Z,7.00
2023-04-26T01:28:34.724Z,5.30
2023-04-26T01:31:05.168Z,6.00
2023-04-26T01:33:32.978Z,6.30
2023-04-26T01:36:00.769Z,9.50
2023-04-26T01:38:30.054Z,6.50
2023-04-26T01:40:57.864Z,4.90
2023-04-26T01:43:25.637Z,3.10
2023-04-26T01:45:53.463Z,5.50
2023-04-26T01:48:40.972Z,7.40
2023-04-26T01:51:08.711Z,6.70
2023-04-26T01:53:36.735Z,4.70
2023-04-26T01:56:05.985Z,7.20
2023-04-26T01:58:33.746Z,6.90
2023-04-26T02:01:07.116Z,5.60
2023-04-26T02:03:35.802Z,5.60
2023-04-26T02:06:04.241Z,3.40
2023-04-26T02:08:32.043Z,4.90
2023-04-26T02:10:59.912Z,6.20
2023-04-26T02:13:27.610Z,10.10
2023-04-26T02:15:55.867Z,6.10
2023-04-26T02:18:23.758Z,7.20
2023-04-26T02:20:51.702Z,3.90
2023-04-26T02:23:20.237Z,6.60
2023-04-26T02:25:49.091Z,6.90
2023-04-26T02:28:19.227Z,9.20
2023-04-26T02:30:46.961Z,5.20
2023-04-26T02:33:14.690Z,8.00
2023-04-26T02:35:42.736Z,6.40
2023-04-26T02:38:11.722Z,6.80
2023-04-26T02:40:39.525Z,6.80
2023-04-26T02:43:08.093Z,6.60
2023-04-26T02:45:42.029Z,5.90
2023-04-26T02:48:11.348Z,9.30
2023-04-26T02:50:39.361Z,8.00
2023-04-26T02:53:07.254Z,8.40
2023-04-26T02:55:34.996Z,8.70
2023-04-26T02:58:02.865Z,6.90
2023-04-26T03:00:30.834Z,7.30
2023-04-26T03:02:58.735Z,7.10
2023-04-26T03:05:26.514Z,5.10
2023-04-26T03:07:54.355Z,7.00
2023-04-26T03:10:22.063Z,6.30
2023-04-26T03:12:50.347Z,5.80
2023-04-26T03:15:18.420Z,6.60
2023-04-26T03:17:46.582Z,5.40
2023-04-26T03:20:15.416Z,6.50
2023-04-26T03:22:43.747Z,9.90
2023-04-26T03:25:11.805Z,8.80
2023-04-26T03:27:39.548Z,7.50
2023-04-26T03:30:08.369Z,5.60
2023-04-26T03:32:36.932Z,11.30
2023-04-26T03:35:05.477Z,6.70
2023-04-26T03:37:33.301Z,6.90
2023-04-26T03:40:08.432Z,5.30
2023-04-26T03:42:36.991Z,4.20
2023-04-26T03:45:05.571Z,11.90
2023-04-26T03:47:33.594Z,8.20
2023-04-26T03:50:01.658Z,7.10
2023-04-26T03:52:29.370Z,6.40
2023-04-26T03:54:57.623Z,4.60
2023-04-26T03:57:25.716Z,8.10
2023-04-26T03:59:53.723Z,5.90
2023-04-26T04:02:21.928Z,7.20
2023-04-26T04:04:50.246Z,9.60
2023-04-26T04:07:19.121Z,7.30
2023-04-26T04:09:46.984Z,8.00
2023-04-26T04:12:15.356Z,7.60
2023-04-26T04:14:44.087Z,7.80
2023-04-26T04:17:12.100Z,7.70
2023-04-26T04:19:40.220Z,5.90
2023-04-26T04:22:08.357Z,7.80
2023-04-26T04:24:37.466Z,4.20
2023-04-26T04:27:05.251Z,7.50
2023-04-26T04:29:33.780Z,10.20
2023-04-26T04:32:02.162Z,7.30
2023-04-26T04:34:30.288Z,5.20
2023-04-26T04:36:58.146Z,6.90
2023-04-26T04:39:26.068Z,6.70
2023-04-26T04:41:54.475Z,7.30
2023-04-26T04:44:24.084Z,6.50
2023-04-26T04:46:53.330Z,7.30
2023-04-26T04:49:21.359Z,8.00
2023-04-26T04:51:49.412Z,7.60
2023-04-26T04:54:18.643Z,7.10
2023-04-26T04:56:48.504Z,9.40
2023-04-26T04:59:17.269Z,7.20
2023-04-26T05:01:45.329Z,8.70
2023-04-26T05:04:15.706Z,4.20
2023-04-26T05:06:44.535Z,5.00
2023-04-26T05:09:13.233Z,9.90
2023-04-26T05:11:41.807Z,6.10
2023-04-26T05:14:11.415Z,7.90
2023-04-26T05:16:39.272Z,5.30
2023-04-26T05:19:09.385Z,8.80
2023-04-26T05:21:37.934Z,4.40
2023-04-26T05:24:07.126Z,5.90
2023-04-26T05:26:36.781Z,6.50
2023-04-26T05:29:31.144Z,5.50
2023-04-26T05:31:59.027Z,7.80
2023-04-26T05:34:53.012Z,4.90
2023-04-26T05:37:21.246Z,6.70
2023-04-26T05:39:49.454Z,4.30
2023-04-26T05:42:18.281Z,7.30
2023-04-26T05:44:46.455Z,7.30
2023-04-26T05:47:14.473Z,6.20
2023-04-26T05:49:42.515Z,4.70
2023-04-26T05:52:10.275Z,6.10
2023-04-26T05:54:38.095Z,5.20
2023-04-26T05:57:06.156Z,8.70
2023-04-26T05:59:37.251Z,6.30
2023-04-26T06:02:05.484Z,5.40
2023-04-26T06:04:33.556Z,5.90
2023-04-26T06:07:05.416Z,5.90
2023-04-26T06:09:33.365Z,4.70
2023-04-26T06:12:01.785Z,6.60
2023-04-26T06:14:30.984Z,6.90
2023-04-26T06:17:02.303Z,5.60
2023-04-26T06:19:30.204Z,6.90
2023-04-26T06:21:57.964Z,3.90
2023-04-26T06:24:26.102Z,5.90
2023-04-26T06:26:53.975Z,5.80
2023-04-26T06:29:21.953Z,3.60
2023-04-26T06:31:49.880Z,4.60
2023-04-26T06:37:47.253Z,5.70
2023-04-26T06:40:15.984Z,5.90
2023-04-26T06:42:44.052Z,6.10
2023-04-26T06:45:24.373Z,3.80
2023-04-26T06:47:53.342Z,4.90
2023-04-26T06:50:24.268Z,9.10
2023-04-26T06:52:52.165Z,5.30
2023-04-26T06:55:20.713Z,6.70
2023-04-26T06:57:50.620Z,4.40
2023-04-26T07:00:19.030Z,4.90
2023-04-26T07:02:46.900Z,4.60
2023-04-26T07:05:15.532Z,3.60
2023-04-26T07:07:43.483Z,4.70
2023-04-26T07:10:11.252Z,5.60
2023-04-26T07:12:39.060Z,4.50
2023-04-26T07:15:07.615Z,6.20
2023-04-26T07:17:35.352Z,3.20
2023-04-26T07:20:04.154Z,3.70
2023-04-26T07:22:31.953Z,3.40
2023-04-26T07:24:59.670Z,5.40
2023-04-26T07:27:27.440Z,3.80
2023-04-26T07:29:56.360Z,5.50
2023-04-26T07:32:24.269Z,4.60
2023-04-26T07:34:52.037Z,6.30
2023-04-26T07:37:19.767Z,3.70
2023-04-26T07:39:47.684Z,4.60
2023-04-26T07:42:15.523Z,4.80
2023-04-26T07:44:43.264Z,6.30
2023-04-26T07:47:14.506Z,5.90
2023-04-26T07:49:42.791Z,4.30
2023-04-26T07:52:10.557Z,5.00
2023-04-26T07:54:40.047Z,3.80
2023-04-26T07:59:35.406Z,3.90
2023-04-26T08:02:03.285Z,2.80
2023-04-26T08:04:34.518Z,4.50
2023-04-26T08:07:02.751Z,5.20
2023-04-26T08:09:30.850Z,3.90
2023-04-26T08:11:58.943Z,7.70
2023-04-26T08:14:27.209Z,2.60
2023-04-26T08:16:54.943Z,3.50
2023-04-26T08:19:23.186Z,4.40
2023-04-26T08:21:51.043Z,2.40
2023-04-26T08:24:18.804Z,4.00
2023-04-26T08:26:46.613Z,6.80
2023-04-26T08:29:15.031Z,4.50
2023-04-26T08:31:42.857Z,3.30
2023-04-26T08:34:11.680Z,1.70
2023-04-26T08:36:42.856Z,4.10
2023-04-26T08:39:12.285Z,7.70
2023-04-26T08:44:11.838Z,2.70
2023-04-26T08:46:48.069Z,1.60
2023-04-26T08:49:36.090Z,7.40
2023-04-26T08:54:32.962Z,2.80
2023-04-26T08:57:01.941Z,5.80
2023-04-26T08:59:31.306Z,3.20
2023-04-26T09:02:01.375Z,4.20
2023-04-26T09:04:29.461Z,3.80
2023-04-26T09:07:01.893Z,3.20
2023-04-26T09:09:38.062Z,3.10
2023-04-26T09:12:06.176Z,3.50
2023-04-26T09:14:34.456Z,1.90
2023-04-26T09:17:02.286Z,2.00
2023-04-26T09:19:42.716Z,2.80
2023-04-26T09:22:11.013Z,3.40
2023-04-26T09:24:50.363Z,2.30
2023-04-26T09:27:19.176Z,2.70
2023-04-26T09:30:10.647Z,2.70
2023-04-26T09:32:44.629Z,3.50
2023-04-26T09:35:39.894Z,4.40
2023-04-26T09:38:13.514Z,4.00
2023-04-26T09:40:46.897Z,2.80
2023-04-26T09:43:16.733Z,3.10
2023-04-26T09:45:50.182Z,1.50
2023-04-26T09:48:23.355Z,2.60
2023-04-26T09:50:53.245Z,3.30
2023-04-26T09:53:27.720Z,2.40
2023-04-26T09:55:56.573Z,1.70
2023-04-26T09:58:24.525Z,3.20
2023-04-26T10:00:53.177Z,3.20
2023-04-26T10:03:21.316Z,3.20
2023-04-26T10:05:49.424Z,2.90
2023-04-26T10:08:17.252Z,7.70
2023-04-26T10:10:47.852Z,3.60
2023-04-26T10:13:16.886Z,4.60
2023-04-26T10:15:45.132Z,3.30
2023-04-26T10:18:13.146Z,1.40
2023-04-26T10:20:44.946Z,2.30
2023-04-26T10:23:25.494Z,4.80
2023-04-26T10:25:55.584Z,2.90
2023-04-26T10:28:50.844Z,2.00
2023-04-26T10:31:21.353Z,4.10
2023-04-26T10:34:18.960Z,1.90
2023-04-26T10:37:17.245Z,2.50
2023-04-26T10:39:46.885Z,1.00
2023-04-26T10:44:56.611Z,1.80
2023-04-26T10:47:37.418Z,2.60
2023-04-26T10:50:09.870Z,4.30
2023-04-26T10:53:05.591Z,2.80
2023-04-26T10:55:42.978Z,2.90
2023-04-26T10:58:31.626Z,2.30
2023-04-26T11:01:08.515Z,2.90
2023-04-26T11:03:37.189Z,3.90
2023-04-26T11:06:09.899Z,3.50
2023-04-26T11:08:37.748Z,3.50
2023-04-26T11:11:13.512Z,5.40
2023-04-26T11:13:43.119Z,3.40
2023-04-26T11:16:13.691Z,3.10
2023-04-26T11:18:44.515Z,2.40
2023-04-26T11:21:17.567Z,5.40
2023-04-26T11:23:55.307Z,5.50
2023-04-26T11:26:24.743Z,3.00
2023-04-26T11:31:21.299Z,2.70
2023-04-26T11:39:22.707Z,2.10
2023-04-26T11:41:50.725Z,2.80
2023-04-26T11:44:21.169Z,2.10
2023-04-26T11:46:49.332Z,3.30
2023-04-26T11:49:17.645Z,2.80
2023-04-26T11:51:49.753Z,2.70
2023-04-26T11:54:37.851Z,6.10
2023-04-26T11:57:17.229Z,1.60
2023-04-26T11:59:46.287Z,5.20
2023-04-26T12:02:14.357Z,3.00
2023-04-26T12:04:44.214Z,3.40
2023-04-26T12:07:12.143Z,2.20
2023-04-26T12:09:44.645Z,3.00
2023-04-26T12:12:12.546Z,3.70
2023-04-26T12:14:40.869Z,4.80
2023-04-26T12:17:10.362Z,3.60
2023-04-26T12:22:08.468Z,1.70
2023-04-26T12:27:07.306Z,3.30
2023-04-26T12:29:35.678Z,3.30
2023-04-26T12:32:04.381Z,1.00
2023-04-26T12:34:33.043Z,5.10
2023-04-26T12:37:01.117Z,3.60
2023-04-26T12:39:28.924Z,2.40
2023-04-26T12:41:57.045Z,2.10
2023-04-26T12:44:25.074Z,2.90
2023-04-26T12:46:52.839Z,2.10
2023-04-26T12:49:20.615Z,1.90
2023-04-26T12:51:48.328Z,2.10
2023-04-26T12:54:16.285Z,4.60
2023-04-26T12:56:45.027Z,2.30
2023-04-26T12:59:12.912Z,3.20
2023-04-26T13:01:41.276Z,5.10
2023-04-26T13:04:10.208Z,2.80
2023-04-26T13:06:38.229Z,1.40
2023-04-26T13:09:08.273Z,4.60
2023-04-26T13:11:36.310Z,2.60
2023-04-26T13:14:04.443Z,3.70
2023-04-26T13:16:33.469Z,2.20
2023-04-26T13:19:01.443Z,2.00
2023-04-26T13:21:29.446Z,3.40
2023-04-26T13:23:57.291Z,4.00
2023-04-26T13:26:27.097Z,3.80
2023-04-26T13:28:55.933Z,3.70
2023-04-26T13:31:23.877Z,2.30
2023-04-26T13:33:51.743Z,3.30
2023-04-26T13:36:19.611Z,1.70
2023-04-26T13:38:47.640Z,2.60
2023-04-26T13:41:15.505Z,3.90
2023-04-26T13:43:43.312Z,1.70
2023-04-26T13:46:11.260Z,3.10
2023-04-26T13:48:39.102Z,3.60
2023-04-26T13:51:07.252Z,2.00
2023-04-26T13:53:35.094Z,4.30
2023-04-26T13:56:02.975Z,6.00
2023-04-26T13:58:30.717Z,2.30
2023-04-26T14:00:58.465Z,3.30
2023-04-26T14:03:27.134Z,3.00
2023-04-26T14:05:56.643Z,2.70
2023-04-26T14:08:24.512Z,2.10
2023-04-26T14:10:53.027Z,3.40
2023-04-26T14:13:21.555Z,4.60
2023-04-26T14:15:49.558Z,3.50
2023-04-26T14:18:17.780Z,3.90
2023-04-26T14:20:46.757Z,2.40
2023-04-26T14:23:14.546Z,2.20
2023-04-26T14:25:42.533Z,3.80
2023-04-26T14:28:10.488Z,2.20
2023-04-26T14:30:38.464Z,1.90
2023-04-26T14:33:06.247Z,4.30
2023-04-26T14:35:34.018Z,2.50
2023-04-26T14:38:01.784Z,3.50
2023-04-26T14:40:30.219Z,3.40
2023-04-26T14:42:58.012Z,4.00
2023-04-26T14:45:37.024Z,2.90
2023-04-26T14:48:12.504Z,4.00
2023-04-26T14:50:40.707Z,5.30
2023-04-26T14:53:09.758Z,6.40
2023-04-26T14:55:37.733Z,6.00
2023-04-26T14:58:05.779Z,2.90
2023-04-26T15:00:33.840Z,2.20
2023-04-26T15:03:01.971Z,3.40
2023-04-26T15:05:29.890Z,3.00
2023-04-26T15:07:57.800Z,3.20
2023-04-26T15:10:25.779Z,3.50
2023-04-26T15:12:53.625Z,3.00
2023-04-26T15:15:21.572Z,3.60
2023-04-26T15:17:49.482Z,4.70
2023-04-26T15:20:18.751Z,3.20
2023-04-26T15:22:46.709Z,2.40
2023-04-26T15:25:14.545Z,6.10
2023-04-26T15:27:42.519Z,2.60
2023-04-26T15:30:10.938Z,3.30
2023-04-26T15:32:38.845Z,4.70
2023-04-26T15:35:07.953Z,4.80
2023-04-26T15:37:36.823Z,1.50
2023-04-26T15:40:06.218Z,4.60
2023-04-26T15:42:33.929Z,6.60
2023-04-26T15:45:02.507Z,4.90
2023-04-26T15:47:30.463Z,4.00
2023-04-26T15:50:03.720Z,5.20
2023-04-26T15:52:38.543Z,4.60
2023-04-26T15:55:08.619Z,6.60
2023-04-26T15:57:36.773Z,3.30
2023-04-26T16:00:09.082Z,4.20
2023-04-26T16:02:37.117Z,4.50
2023-04-26T16:05:07.236Z,7.00
2023-04-26T16:07:35.357Z,2.90
2023-04-26T16:10:03.902Z,4.80
2023-04-26T16:12:31.965Z,4.20
2023-04-26T16:14:59.761Z,4.00
2023-04-26T16:17:27.584Z,8.40
2023-04-26T16:19:55.894Z,6.00
2023-04-26T16:22:23.729Z,5.80
2023-04-26T16:24:51.543Z,5.80
2023-04-26T16:27:22.592Z,5.80
2023-04-26T16:29:50.365Z,4.10
2023-04-26T16:32:18.214Z,5.60
2023-04-26T16:34:46.085Z,4.10
2023-04-26T16:37:14.833Z,4.70
2023-04-26T16:39:42.632Z,5.40
2023-04-26T16:42:10.620Z,3.90
2023-04-26T16:44:38.461Z,4.00
2023-04-26T16:47:06.807Z,4.70
2023-04-26T16:49:34.812Z,5.80
2023-04-26T16:52:02.578Z,3.40
2023-04-26T16:54:30.352Z,5.80
2023-04-26T16:56:58.366Z,5.10
2023-04-26T16:59:26.234Z,2.40
2023-04-26T17:01:54.614Z,4.80
2023-04-26T17:04:22.633Z,3.70
2023-04-26T17:06:50.859Z,6.00
2023-04-26T17:09:18.748Z,3.30
2023-04-26T17:11:46.936Z,3.60
2023-04-26T17:14:15.601Z,4.10
2023-04-26T17:16:43.524Z,3.40
2023-04-26T17:19:11.695Z,3.70
2023-04-26T17:21:39.455Z,2.10
2023-04-26T17:24:08.865Z,4.20
2023-04-26T17:26:36.962Z,3.10
2023-04-26T17:29:04.928Z,3.70
2023-04-26T17:31:32.942Z,5.00
2023-04-26T17:34:03.296Z,2.80
2023-04-26T17:36:32.475Z,4.20
2023-04-26T17:39:00.646Z,3.80
2023-04-26T17:41:28.480Z,2.60
2023-04-26T17:43:56.294Z,5.80
2023-04-26T17:46:24.132Z,2.90
2023-04-26T17:48:52.206Z,3.40
2023-04-26T17:51:20.022Z,3.50
2023-04-26T17:53:47.795Z,3.00
2023-04-26T17:56:15.573Z,3.70
2023-04-26T17:58:43.496Z,4.90
2023-04-26T18:01:11.525Z,5.50
2023-04-26T18:03:39.663Z,3.40
2023-04-26T18:06:07.624Z,5.30
2023-04-26T18:08:35.492Z,4.30
2023-04-26T18:11:03.265Z,5.20
2023-04-26T18:13:31.599Z,6.10
2023-04-26T18:15:59.432Z,3.70
2023-04-26T18:18:29.637Z,4.10
2023-04-26T18:20:57.800Z,5.50
2023-04-26T18:23:25.785Z,4.50
2023-04-26T18:25:53.539Z,4.00
2023-04-26T18:28:22.077Z,3.90
2023-04-26T18:30:49.841Z,5.80
2023-04-26T18:33:17.844Z,5.00
2023-04-26T18:35:49.069Z,5.70
2023-04-26T18:38:17.719Z,5.00
2023-04-26T18:40:49.786Z,9.80
2023-04-26T18:43:17.937Z,5.20
2023-04-26T18:45:45.964Z,6.40
2023-04-26T18:48:13.782Z,6.20
2023-04-26T18:50:48.983Z,3.80
2023-04-26T18:53:17.556Z,5.60
2023-04-26T18:55:45.415Z,4.90
2023-04-26T18:58:13.390Z,6.40
2023-04-26T19:00:41.230Z,6.60
2023-04-26T19:03:09.194Z,8.30
2023-04-26T19:05:41.301Z,7.80
2023-04-26T19:08:09.682Z,7.50
2023-04-26T19:10:37.791Z,5.80
2023-04-26T19:13:05.850Z,7.30
2023-04-26T19:15:33.553Z,5.70
2023-04-26T19:18:01.581Z,6.30
2023-04-26T19:20:29.544Z,7.00
2023-04-26T19:22:57.297Z,6.50
2023-04-26T19:25:26.758Z,8.00
2023-04-26T19:27:54.586Z,7.10
2023-04-26T19:30:22.352Z,6.30
2023-04-26T19:32:51.070Z,10.90
2023-04-26T19:35:19.059Z,8.40
2023-04-26T19:37:46.892Z,8.40
2023-04-26T19:40:14.968Z,11.10
2023-04-26T19:42:42.753Z,12.00
2023-04-26T19:45:11.016Z,8.40
2023-04-26T19:47:41.736Z,7.80
2023-04-26T19:50:10.186Z,8.50
2023-04-26T19:52:37.917Z,9.90
2023-04-26T19:55:05.852Z,7.90
2023-04-26T19:57:33.814Z,7.90
2023-04-26T20:00:01.761Z,7.30
2023-04-26T20:02:35.051Z,10.30
2023-04-26T20:05:03.369Z,7.00
2023-04-26T20:07:31.802Z,5.90
2023-04-26T20:09:59.847Z,9.30
2023-04-26T20:12:27.630Z,7.40
2023-04-26T20:14:55.439Z,8.10
2023-04-26T20:17:23.289Z,7.10
2023-04-26T20:19:51.728Z,6.20
2023-04-26T20:22:19.457Z,4.80
2023-04-26T20:24:47.383Z,7.40
2023-04-26T20:27:15.120Z,6.40
2023-04-26T20:29:42.863Z,6.60
2023-04-26T20:32:10.658Z,13.60
2023-04-26T20:34:38.672Z,7.30
2023-04-26T20:37:06.456Z,6.50
2023-04-26T20:39:34.194Z,9.00
2023-04-26T20:42:02.357Z,8.40
2023-04-26T20:44:30.115Z,8.10
2023-04-26T20:46:57.970Z,5.30
2023-04-26T20:49:25.757Z,6.40
2023-04-26T20:51:54.620Z,7.60
2023-04-26T20:54:22.425Z,6.20
2023-04-26T20:56:50.237Z,9.90
2023-04-26T20:59:18.034Z,10.50
2023-04-26T21:01:46.043Z,7.50
2023-04-26T21:04:14.000Z,9.30
2023-04-26T21:06:41.842Z,7.60
2023-04-26T21:09:09.828Z,10.20
2023-04-26T21:11:37.780Z,7.80
2023-04-26T21:14:06.850Z,8.10
2023-04-26T21:16:35.597Z,6.20
2023-04-26T21:19:03.567Z,7.20
2023-04-26T21:21:32.556Z,6.80
2023-04-26T21:24:00.951Z,8.20
2023-04-26T21:26:28.777Z,7.40
2023-04-26T21:28:56.576Z,5.70
2023-04-26T21:31:24.414Z,7.90
2023-04-26T21:33:53.360Z,5.80
2023-04-26T21:39:06.713Z,9.00
2023-04-26T21:41:34.525Z,6.50
2023-04-26T21:44:02.206Z,8.90
2023-04-26T21:46:30.212Z,7.50
2023-04-26T21:48:58.248Z,8.30
2023-04-26T21:51:25.973Z,7.50
2023-04-26T21:53:53.782Z,7.50
2023-04-26T21:56:21.785Z,6.70
2023-04-26T21:58:49.535Z,8.30
2023-04-26T22:01:17.511Z,7.90
2023-04-26T22:03:45.599Z,8.10
2023-04-26T22:06:13.465Z,8.30
2023-04-26T22:08:41.379Z,6.20
2023-04-26T22:11:09.229Z,6.40
2023-04-26T22:13:37.024Z,8.20
2023-04-26T22:16:05.156Z,5.80
2023-04-26T22:18:33.004Z,7.60
2023-04-26T22:21:01.052Z,10.90
2023-04-26T22:23:28.886Z,5.90
2023-04-26T22:25:58.192Z,7.80
2023-04-26T22:28:26.771Z,6.10
2023-04-26T22:30:54.559Z,7.30
2023-04-26T22:33:22.389Z,9.50
2023-04-26T22:35:50.187Z,6.20
2023-04-26T22:38:18.025Z,5.90
2023-04-26T22:40:45.818Z,7.60
2023-04-26T22:43:13.514Z,9.20
2023-04-26T22:45:41.354Z,7.50
2023-04-26T22:48:09.148Z,6.40
2023-04-26T22:50:36.961Z,6.90
2023-04-26T22:53:04.763Z,8.50
2023-04-26T22:55:32.607Z,6.40
2023-04-26T22:58:00.504Z,6.90
2023-04-26T23:00:28.299Z,7.20
2023-04-26T23:02:56.191Z,7.80
2023-04-26T23:05:24.093Z,7.90
2023-04-26T23:07:52.453Z,5.90
2023-04-26T23:10:20.473Z,7.50
2023-04-26T23:12:50.116Z,5.70
2023-04-26T23:15:18.674Z,6.00
2023-04-26T23:17:47.067Z,5.50
2023-04-26T23:20:15.925Z,7.40
2023-04-26T23:22:44.033Z,9.10
2023-04-26T23:25:11.899Z,5.80
2023-04-26T23:27:39.916Z,7.30
2023-04-26T23:30:08.389Z,6.50
2023-04-26T23:32:36.873Z,7.50
2023-04-26T23:35:05.571Z,8.70
2023-04-26T23:37:33.412Z,8.80
2023-04-26T23:40:01.489Z,9.50
2023-04-26T23:42:29.346Z,6.80
2023-04-26T23:44:57.059Z,8.10
2023-04-26T23:47:25.510Z,6.30
2023-04-26T23:49:53.435Z,10.40
2023-04-26T23:52:21.272Z,6.90
2023-04-26T23:54:49.098Z,7.20
2023-04-26T23:57:16.993Z,9.50
2023-04-26T23:59:44.796Z,10.10
